Time;durP1;ratioP1;P1;durP2;ratioP2;P2;SDS_P1;SDS_P2;PMS_P1;PMS_P2;Temp;Humidity;BMP_temperature;BMP_pressure;BME280_temperature;BME280_humidity;BME280_pressure;Samples;Min_cycle;Max_cycle;Signal;HPM_P1;HPM_P2
2022/11/12 00:02:11;;;;;;;19.73;12.27;;;7.30;1.00;;;;;;6319033;22;20216;-84
2022/11/12 00:04:40;;;;;;;20.98;13.00;;;7.30;1.00;;;;;;6320292;22;20213;-84
2022/11/12 00:07:07;;;;;;;19.13;12.88;;;7.30;1.00;;;;;;6322102;22;20189;-83
2022/11/12 00:09:34;;;;;;;17.83;13.85;;;7.30;1.00;;;;;;6325241;22;20216;-83
2022/11/12 00:12:01;;;;;;;21.10;13.32;;;7.30;1.00;;;;;;6319939;22;20254;-81
2022/11/12 00:14:30;;;;;;;17.98;12.68;;;7.30;1.00;;;;;;6320933;22;20218;-84
2022/11/12 00:16:57;;;;;;;17.38;12.25;;;7.40;1.00;;;;;;6318788;22;20265;-82
2022/11/12 00:19:24;;;;;;;18.30;13.48;;;7.40;1.00;;;;;;6321000;22;20221;-82
2022/11/12 00:21:51;;;;;;;22.90;13.15;;;7.40;1.00;;;;;;6315421;22;20220;-84
2022/11/12 00:24:21;;;;;;;26.75;13.32;;;7.40;1.00;;;;;;6306504;22;20215;-83
2022/11/12 00:26:50;;;;;;;21.65;13.40;;;7.30;1.00;;;;;;6320000;22;20210;-83
2022/11/12 00:29:17;;;;;;;18.48;12.85;;;7.30;1.00;;;;;;6318961;22;20209;-84
2022/11/12 00:31:45;;;;;;;18.70;12.38;;;7.30;1.00;;;;;;6316408;22;20209;-84
2022/11/12 00:34:17;;;;;;;20.00;13.32;;;7.30;1.00;;;;;;6318086;22;20220;-82
2022/11/12 00:36:44;;;;;;;17.40;11.30;;;7.30;1.00;;;;;;6317350;22;20202;-81
2022/11/12 00:39:12;;;;;;;16.10;11.15;;;7.20;1.00;;;;;;6305903;22;20209;-82
2022/11/12 00:41:41;;;;;;;17.35;11.77;;;7.20;1.00;;;;;;6339528;22;20224;-83
2022/11/12 00:44:08;;;;;;;15.05;10.50;;;7.10;1.00;;;;;;6317367;22;20646;-83
2022/11/12 00:46:35;;;;;;;17.13;10.48;;;7.10;1.00;;;;;;6318525;22;20222;-85
2022/11/12 00:49:03;;;;;;;17.08;10.20;;;7.10;1.00;;;;;;6314364;22;20755;-84
2022/11/12 00:51:32;;;;;;;14.55;9.73;;;7.10;1.00;;;;;;6320183;22;20976;-83
2022/11/12 00:53:59;;;;;;;16.40;9.98;;;7.10;1.00;;;;;;6317888;22;20214;-81
2022/11/12 00:56:26;;;;;;;21.98;11.50;;;7.10;1.00;;;;;;6325228;22;20199;-83
2022/11/12 00:58:53;;;;;;;14.95;9.15;;;7.10;1.00;;;;;;6325016;22;20216;-83
2022/11/12 01:01:22;;;;;;;14.90;10.05;;;7.00;1.00;;;;;;6324824;22;20568;-83
2022/11/12 01:03:49;;;;;;;15.60;9.52;;;7.00;1.00;;;;;;6321144;22;20216;-85
2022/11/12 01:06:21;;;;;;;14.27;10.10;;;7.00;1.00;;;;;;6318927;22;20216;-83
2022/11/12 01:08:52;;;;;;;17.58;10.13;;;7.00;1.00;;;;;;6318973;22;20275;-85
2022/11/12 01:11:34;;;;;;;13.77;8.77;;;7.00;1.00;;;;;;6321389;22;20213;-83
2022/11/12 01:14:04;;;;;;;15.07;10.57;;;7.00;1.00;;;;;;6318586;22;20231;-84
2022/11/12 01:16:34;;;;;;;18.92;10.60;;;6.90;1.00;;;;;;6314265;22;20204;-84
2022/11/12 01:19:06;;;;;;;15.82;9.75;;;7.00;1.00;;;;;;6322915;22;20946;-84
2022/11/12 01:21:40;;;;;;;18.65;10.15;;;6.90;1.00;;;;;;6338772;22;20213;-84
2022/11/12 01:24:09;;;;;;;15.82;10.52;;;6.90;1.00;;;;;;6324305;22;20247;-84
2022/11/12 01:26:52;;;;;;;13.85;8.63;;;6.90;1.00;;;;;;6322755;22;20258;-85
2022/11/12 01:29:25;;;;;;;16.40;10.50;;;6.90;1.00;;;;;;6330275;22;20207;-85
2022/11/12 01:31:52;;;;;;;15.25;9.80;;;6.80;1.00;;;;;;6311958;22;20221;-84
2022/11/12 01:34:26;;;;;;;14.27;9.57;;;6.90;1.00;;;;;;6331634;22;20213;-84
2022/11/12 01:36:54;;;;;;;16.42;10.05;;;6.90;1.00;;;;;;6318846;22;20291;-84
2022/11/12 01:39:23;;;;;;;17.05;10.57;;;6.90;1.00;;;;;;6318473;22;20723;-84
2022/11/12 01:41:52;;;;;;;15.15;8.50;;;6.80;1.00;;;;;;6318766;22;20209;-84
2022/11/12 01:44:23;;;;;;;16.52;9.80;;;6.80;1.00;;;;;;6317381;22;20240;-83
2022/11/12 01:47:13;;;;;;;15.82;10.00;;;6.80;1.00;;;;;;6316625;22;20650;-83
2022/11/12 01:49:44;;;;;;;18.98;10.88;;;6.80;1.00;;;;;;6316269;22;20279;-84
2022/11/12 01:52:19;;;;;;;16.17;9.60;;;6.80;1.00;;;;;;6318161;22;20270;-84
2022/11/12 01:54:49;;;;;;;14.30;9.57;;;6.70;1.00;;;;;;6320830;22;20209;-83
2022/11/12 01:57:19;;;;;;;15.77;10.02;;;6.70;1.00;;;;;;6318152;22;20206;-83
2022/11/12 01:59:50;;;;;;;16.45;10.60;;;6.70;1.00;;;;;;6313420;22;20209;-84
2022/11/12 02:02:17;;;;;;;15.48;10.30;;;6.70;1.00;;;;;;6314514;22;20205;-82
2022/11/12 02:04:45;;;;;;;15.35;9.43;;;6.70;1.00;;;;;;6314751;22;20689;-83
2022/11/12 02:07:14;;;;;;;13.38;9.52;;;6.70;1.00;;;;;;6311755;22;20754;-82
2022/11/12 02:09:43;;;;;;;14.43;9.75;;;6.70;1.00;;;;;;6313609;22;20661;-83
2022/11/12 02:13:56;;;;;;;17.73;9.90;;;6.70;1.00;;;;;;6311154;22;20217;-83
2022/11/12 02:14:57;;;;;;;17.58;9.57;;;6.70;1.00;;;;;;6315704;22;20920;-83
2022/11/12 02:17:24;;;;;;;17.20;9.27;;;6.60;1.00;;;;;;6295091;22;20261;-84
2022/11/12 02:19:52;;;;;;;14.35;10.50;;;6.60;1.00;;;;;;6315264;22;20198;-82
2022/11/12 02:22:23;;;;;;;15.15;8.52;;;6.60;1.00;;;;;;6316350;22;21150;-84
2022/11/12 02:24:52;;;;;;;14.75;8.95;;;6.70;1.00;;;;;;6314661;22;20691;-84
2022/11/12 02:27:20;;;;;;;18.50;10.35;;;6.70;1.00;;;;;;6313897;22;20220;-84
2022/11/12 02:29:47;;;;;;;15.60;8.68;;;6.70;1.00;;;;;;6301807;22;20209;-84
2022/11/12 02:32:14;;;;;;;14.80;8.98;;;6.70;1.00;;;;;;6315733;22;20689;-83
2022/11/12 02:34:43;;;;;;;15.57;10.38;;;6.70;1.00;;;;;;6319022;22;20217;-81
2022/11/12 02:37:12;;;;;;;17.65;9.20;;;6.70;1.00;;;;;;6310103;22;20670;-79
2022/11/12 02:39:44;;;;;;;13.90;8.60;;;6.70;1.00;;;;;;6313874;22;20213;-79
2022/11/12 02:42:12;;;;;;;15.35;8.93;;;6.70;1.00;;;;;;6301104;22;20331;-80
2022/11/12 02:44:39;;;;;;;15.10;8.30;;;6.70;1.00;;;;;;6302679;22;20247;-80
2022/11/12 02:47:13;;;;;;;17.45;9.18;;;6.80;1.00;;;;;;6278643;22;20600;-81
2022/11/12 02:49:43;;;;;;;14.75;9.07;;;6.70;1.00;;;;;;6313712;22;20302;-81
2022/11/12 02:52:13;;;;;;;15.45;7.50;;;6.70;1.00;;;;;;6291824;22;20212;-80
2022/11/12 02:54:41;;;;;;;12.57;7.90;;;6.80;1.00;;;;;;6314737;22;20217;-79
2022/11/12 02:57:10;;;;;;;15.00;8.15;;;6.70;1.00;;;;;;6314217;22;20227;-79
2022/11/12 02:59:37;;;;;;;15.93;9.77;;;6.70;1.00;;;;;;6313272;22;20212;-79
2022/11/12 03:02:04;;;;;;;13.80;8.88;;;6.70;1.00;;;;;;6285366;22;20680;-78
2022/11/12 03:04:32;;;;;;;15.35;9.80;;;6.70;1.00;;;;;;6286542;22;20968;-79
2022/11/12 03:07:01;;;;;;;16.73;9.57;;;6.70;1.00;;;;;;6283099;22;20215;-79
2022/11/12 03:09:34;;;;;;;14.50;8.63;;;6.60;1.00;;;;;;6289362;22;20246;-79
2022/11/12 03:12:13;;;;;;;16.73;10.30;;;6.60;1.00;;;;;;6299632;22;20286;-81
2022/11/12 03:14:43;;;;;;;19.30;10.18;;;6.50;1.00;;;;;;6299509;22;20685;-78
2022/11/12 03:17:11;;;;;;;16.42;10.68;;;6.50;1.00;;;;;;6312191;22;20261;-79
2022/11/12 03:19:38;;;;;;;16.83;9.70;;;6.40;1.00;;;;;;6300344;22;21128;-79
2022/11/12 03:22:05;;;;;;;15.80;10.10;;;6.40;1.00;;;;;;6308985;22;20724;-79
2022/11/12 03:24:35;;;;;;;14.45;9.30;;;6.40;1.00;;;;;;6314474;22;20688;-80
2022/11/12 03:27:05;;;;;;;15.35;9.38;;;6.40;1.00;;;;;;6308954;22;20213;-80
2022/11/12 03:29:32;;;;;;;14.65;8.57;;;6.40;1.00;;;;;;6303082;22;20221;-80
2022/11/12 03:32:01;;;;;;;13.48;9.20;;;6.50;1.00;;;;;;6290325;22;20232;-81
2022/11/12 03:34:30;;;;;;;19.30;10.00;;;6.50;1.00;;;;;;6320080;22;20412;-79
2022/11/12 03:36:57;;;;;;;17.13;9.88;;;6.50;1.00;;;;;;6304058;22;20192;-82
2022/11/12 03:39:25;;;;;;;13.05;8.77;;;6.50;1.00;;;;;;6294531;22;20738;-78
2022/11/12 03:41:52;;;;;;;14.60;8.70;;;6.60;1.00;;;;;;6327680;22;20210;-79
2022/11/12 03:44:30;;;;;;;13.70;7.38;;;6.50;1.00;;;;;;6291667;22;20238;-85
2022/11/12 03:46:57;;;;;;;14.32;8.90;;;6.40;1.00;;;;;;6299450;22;20218;-77
2022/11/12 03:49:24;;;;;;;14.82;9.05;;;6.40;1.00;;;;;;6293438;22;20212;-80
2022/11/12 03:51:53;;;;;;;13.75;8.45;;;6.40;1.00;;;;;;6297761;22;20208;-78
2022/11/12 03:54:23;;;;;;;15.38;8.73;;;6.30;1.00;;;;;;6286560;22;20237;-78
2022/11/12 03:56:52;;;;;;;17.27;8.60;;;6.20;1.00;;;;;;6298854;22;20215;-79
2022/11/12 03:59:26;;;;;;;11.80;7.65;;;6.20;1.00;;;;;;6310881;22;20213;-79
2022/11/12 04:01:53;;;;;;;16.08;8.00;;;6.10;1.00;;;;;;6260064;22;20288;-79
2022/11/12 04:08:34;;;;;;;12.43;7.82;;;6.10;1.00;;;;;;6268023;22;20209;-79
2022/11/12 04:10:05;;;;;;;13.98;7.50;;;6.20;1.00;;;;;;6311727;22;20212;-87
2022/11/12 04:15:22;;;;;;;15.82;6.82;;;6.00;1.00;;;;;;6312917;22;20211;-78
2022/11/12 04:23:30;;;;;;;14.55;8.73;;;6.00;1.00;;;;;;6316573;22;20227;-80
2022/11/12 04:30:14;;;;;;;13.43;7.13;;;5.90;1.00;;;;;;6318541;22;20215;-80
2022/11/12 04:31:34;;;;;;;12.48;7.97;;;5.90;1.00;;;;;;6283086;22;20950;-79
2022/11/12 04:37:12;;;;;;;14.30;7.85;;;5.90;1.00;;;;;;6288145;22;20213;-80
2022/11/12 04:39:42;;;;;;;14.18;8.25;;;5.90;1.00;;;;;;6257726;22;20290;-80
2022/11/12 04:45:11;;;;;;;14.95;8.20;;;5.90;1.00;;;;;;6178811;23;20289;-79
2022/11/12 04:47:42;;;;;;;14.25;6.97;;;5.80;1.00;;;;;;6296302;22;20213;-78
2022/11/12 04:50:14;;;;;;;13.50;7.53;;;5.80;1.00;;;;;;6306056;22;20221;-78
2022/11/12 04:52:43;;;;;;;11.45;7.38;;;5.80;1.00;;;;;;6317462;22;21401;-78
2022/11/12 04:55:14;;;;;;;11.95;7.85;;;5.70;1.00;;;;;;6313725;22;20273;-80
2022/11/12 04:57:42;;;;;;;12.77;7.10;;;5.70;1.00;;;;;;6286897;22;20266;-79
2022/11/12 05:00:11;;;;;;;11.70;7.53;;;5.70;1.00;;;;;;6274884;22;20247;-83
2022/11/12 05:02:46;;;;;;;12.55;8.05;;;5.70;1.00;;;;;;6275212;22;20241;-79
2022/11/12 05:05:13;;;;;;;18.67;8.95;;;5.70;1.00;;;;;;6240744;22;20278;-79
2022/11/12 05:07:43;;;;;;;12.77;7.72;;;5.60;1.00;;;;;;6283087;22;20289;-80
2022/11/12 05:10:13;;;;;;;13.77;7.70;;;5.60;1.00;;;;;;6309472;22;20217;-78
2022/11/12 05:12:43;;;;;;;15.23;8.50;;;5.70;1.00;;;;;;6309514;22;20215;-78
2022/11/12 05:15:13;;;;;;;14.13;7.85;;;5.70;1.00;;;;;;6313531;22;20740;-79
2022/11/12 05:17:45;;;;;;;15.57;8.07;;;5.60;1.00;;;;;;6311238;22;20382;-82
2022/11/12 05:20:22;;;;;;;14.90;8.63;;;5.60;1.00;;;;;;6276857;22;20205;-79
2022/11/12 05:22:56;;;;;;;14.18;7.47;;;5.60;1.00;;;;;;6266476;22;21138;-80
2022/11/12 05:25:24;;;;;;;14.48;7.70;;;5.70;1.00;;;;;;6304544;22;20264;-80
2022/11/12 05:27:54;;;;;;;14.13;8.40;;;5.60;1.00;;;;;;6298262;22;20242;-83
2022/11/12 05:30:24;;;;;;;14.60;7.97;;;5.50;1.00;;;;;;6329147;22;20251;-79
2022/11/12 05:32:52;;;;;;;12.98;7.07;;;5.50;1.00;;;;;;6303350;22;20213;-80
2022/11/12 05:35:21;;;;;;;11.45;7.07;;;5.40;1.00;;;;;;6312709;22;21008;-81
2022/11/12 05:41:25;;;;;;;13.45;7.07;;;5.30;1.00;;;;;;6287494;22;20227;-79
2022/11/12 05:43:55;;;;;;;13.32;6.97;;;5.30;1.00;;;;;;6303805;22;20681;-77
2022/11/12 05:49:16;;;;;;;12.18;7.88;;;5.30;1.00;;;;;;6231882;22;20206;-81
2022/11/12 05:51:49;;;;;;;13.15;8.90;;;5.30;1.00;;;;;;6314085;22;20214;-81
2022/11/12 05:54:16;;;;;;;13.15;7.45;;;5.30;1.00;;;;;;6274476;22;20322;-79
2022/11/12 05:56:46;;;;;;;14.15;8.23;;;5.30;1.00;;;;;;6324434;22;20308;-82
2022/11/12 05:59:14;;;;;;;12.27;7.60;;;5.30;1.00;;;;;;6307020;22;20204;-80
2022/11/12 06:01:43;;;;;;;13.65;7.15;;;5.30;1.00;;;;;;6334571;22;20219;-78
2022/11/12 06:04:12;;;;;;;16.83;9.13;;;5.20;1.00;;;;;;6312258;22;20242;-79
2022/11/12 06:06:42;;;;;;;15.15;7.70;;;5.20;1.00;;;;;;6301026;22;20209;-82
2022/11/12 06:09:10;;;;;;;14.63;7.60;;;5.20;1.00;;;;;;6289348;22;20272;-84
2022/11/12 06:11:38;;;;;;;12.13;6.75;;;5.10;1.00;;;;;;6331693;22;20228;-81
2022/11/12 06:14:07;;;;;;;11.20;8.45;;;5.10;1.00;;;;;;6281224;22;20220;-82
2022/11/12 06:16:34;;;;;;;12.60;8.10;;;5.20;1.00;;;;;;6295567;22;20232;-79
2022/11/12 06:19:04;;;;;;;12.55;8.15;;;5.20;1.00;;;;;;6310133;22;20227;-83
2022/11/12 06:21:33;;;;;;;12.32;7.50;;;5.20;1.00;;;;;;6311552;22;20561;-83
2022/11/12 06:24:02;;;;;;;12.55;6.35;;;5.10;1.00;;;;;;6304927;22;20237;-83
2022/11/12 06:26:31;;;;;;;15.48;8.27;;;5.20;1.00;;;;;;6309541;22;20613;-83
2022/11/12 06:28:58;;;;;;;14.95;8.25;;;5.20;1.00;;;;;;6291941;22;21068;-81
2022/11/12 06:31:26;;;;;;;14.40;8.20;;;5.20;1.00;;;;;;6335933;22;20236;-84
2022/11/12 06:33:53;;;;;;;18.58;9.82;;;5.20;1.00;;;;;;6302476;22;20240;-83
2022/11/12 06:36:23;;;;;;;16.15;8.77;;;5.20;1.00;;;;;;6317061;22;20222;-83
2022/11/12 06:38:56;;;;;;;12.25;7.68;;;5.20;1.00;;;;;;6304738;22;20216;-83
2022/11/12 06:41:23;;;;;;;15.30;7.85;;;5.30;1.00;;;;;;6319896;22;20241;-83
2022/11/12 06:43:50;;;;;;;15.13;7.90;;;5.30;1.00;;;;;;6321015;22;20267;-83
2022/11/12 06:46:17;;;;;;;12.35;7.82;;;5.40;1.00;;;;;;6305449;22;20239;-84
2022/11/12 06:48:46;;;;;;;16.08;8.77;;;5.40;1.00;;;;;;6319770;22;20256;-83
2022/11/12 06:51:18;;;;;;;13.93;8.45;;;5.40;1.00;;;;;;6317316;22;20221;-84
2022/11/12 06:53:45;;;;;;;15.70;9.45;;;5.40;1.00;;;;;;6301906;22;20805;-83
2022/11/12 06:56:12;;;;;;;15.00;9.20;;;5.40;1.00;;;;;;6317708;22;20937;-83
2022/11/12 06:58:46;;;;;;;16.23;8.60;;;5.40;1.00;;;;;;6324916;22;20212;-83
2022/11/12 07:01:14;;;;;;;14.93;9.77;;;5.50;1.00;;;;;;6316788;22;20757;-83
2022/11/12 07:03:42;;;;;;;14.70;9.35;;;5.50;1.00;;;;;;6314477;22;20216;-82
2022/11/12 07:06:13;;;;;;;16.60;8.82;;;5.40;1.00;;;;;;6318760;22;20211;-82
2022/11/12 07:08:43;;;;;;;18.45;10.73;;;5.50;1.00;;;;;;6319094;22;20231;-83
2022/11/12 07:11:10;;;;;;;17.75;9.00;;;5.60;1.00;;;;;;6317765;22;20310;-85
2022/11/12 07:13:39;;;;;;;16.13;9.82;;;5.60;1.00;;;;;;6320547;22;20225;-84
2022/11/12 07:16:08;;;;;;;15.02;8.45;;;5.60;1.00;;;;;;6317050;22;20217;-84
2022/11/12 07:18:35;;;;;;;22.52;16.48;;;5.70;1.00;;;;;;6304360;22;20270;-87
2022/11/12 07:21:05;;;;;;;23.70;15.18;;;5.70;1.00;;;;;;6315077;22;20259;-85
2022/11/12 07:23:35;;;;;;;14.27;9.52;;;5.70;1.00;;;;;;6316738;22;20216;-87
2022/11/12 07:26:07;;;;;;;15.48;8.50;;;5.80;1.00;;;;;;6317134;22;20222;-86
2022/11/12 07:28:35;;;;;;;16.35;10.35;;;5.80;1.00;;;;;;6325880;22;20212;-85
2022/11/12 07:31:05;;;;;;;20.73;12.93;;;5.90;1.00;;;;;;6298580;22;20222;-82
2022/11/12 07:33:35;;;;;;;23.73;14.52;;;6.10;1.00;;;;;;6313663;22;20201;-81
2022/11/12 07:36:09;;;;;;;21.23;13.00;;;6.30;1.00;;;;;;6313332;22;20303;-84
2022/11/12 07:38:39;;;;;;;27.50;15.90;;;6.50;1.00;;;;;;6295331;22;20198;-83
2022/11/12 07:41:15;;;;;;;15.23;10.07;;;6.60;1.00;;;;;;6313796;22;20193;-81
2022/11/12 07:43:46;;;;;;;16.55;10.48;;;6.80;1.00;;;;;;6303009;22;20263;-84
2022/11/12 07:46:20;;;;;;;17.58;10.15;;;6.90;1.00;;;;;;6278629;22;20199;-84
2022/11/12 07:48:51;;;;;;;15.80;8.98;;;7.00;1.00;;;;;;6334150;22;20222;-81
2022/11/12 07:51:19;;;;;;;20.77;10.75;;;7.20;1.00;;;;;;6315295;22;21227;-80
2022/11/12 07:53:52;;;;;;;20.95;10.32;;;7.30;1.00;;;;;;6304607;22;21619;-79
2022/11/12 07:56:33;;;;;;;13.57;8.65;;;7.50;1.00;;;;;;6289587;22;20516;-80
2022/11/12 07:59:04;;;;;;;13.35;7.80;;;7.80;1.00;;;;;;6305491;22;20201;-79
2022/11/12 08:01:35;;;;;;;13.38;9.00;;;8.00;1.00;;;;;;6308934;22;20193;-80
2022/11/12 08:04:05;;;;;;;13.93;8.35;;;8.00;1.00;;;;;;6309398;22;20213;-79
2022/11/12 08:06:34;;;;;;;16.58;10.27;;;8.10;1.00;;;;;;6325570;22;21159;-82
2022/11/12 08:09:14;;;;;;;18.98;10.00;;;8.10;1.00;;;;;;6319085;22;20214;-82
2022/11/12 08:11:42;;;;;;;15.35;10.40;;;8.10;1.00;;;;;;6322935;22;20219;-83
2022/11/12 08:14:14;;;;;;;12.57;8.23;;;8.20;1.00;;;;;;6311646;22;20194;-83
2022/11/12 08:16:45;;;;;;;14.45;9.65;;;8.30;1.00;;;;;;6310614;22;20216;-83
2022/11/12 08:19:14;;;;;;;11.75;8.98;;;8.30;1.00;;;;;;6310311;22;20213;-83
2022/11/12 08:21:43;;;;;;;14.38;9.23;;;8.40;1.00;;;;;;6324964;22;20202;-82
2022/11/12 08:24:14;;;;;;;16.10;9.00;;;8.40;1.00;;;;;;6318522;22;20213;-82
2022/11/12 08:26:42;;;;;;;15.43;8.82;;;8.60;1.00;;;;;;6299437;22;20420;-79
2022/11/12 08:29:25;;;;;;;13.43;9.88;;;8.70;1.00;;;;;;6304650;22;20217;-81
2022/11/12 08:31:56;;;;;;;14.60;9.20;;;8.90;1.00;;;;;;6313062;22;20683;-81
2022/11/12 08:34:23;;;;;;;15.27;9.75;;;9.00;1.00;;;;;;6321112;22;20413;-80
2022/11/12 08:36:56;;;;;;;13.88;9.68;;;9.10;1.00;;;;;;6300988;22;20235;-80
2022/11/12 08:39:25;;;;;;;14.98;9.27;;;9.10;1.00;;;;;;6325646;22;20219;-79
2022/11/12 08:41:54;;;;;;;13.02;9.15;;;9.10;1.00;;;;;;6284600;22;21461;-79
2022/11/12 08:44:24;;;;;;;16.50;10.47;;;9.10;1.00;;;;;;6307989;22;20214;-79
2022/11/12 08:46:51;;;;;;;14.07;9.65;;;9.20;1.00;;;;;;6298451;22;21169;-79
2022/11/12 08:49:18;;;;;;;17.50;10.90;;;9.30;1.00;;;;;;6312471;22;20266;-80
2022/11/12 08:51:45;;;;;;;12.63;9.48;;;9.30;1.00;;;;;;6311942;22;20927;-78
2022/11/12 08:54:12;;;;;;;12.93;9.23;;;9.40;1.00;;;;;;6311873;22;20221;-78
2022/11/12 08:56:42;;;;;;;12.90;10.40;;;9.40;1.00;;;;;;6311589;22;20946;-79
2022/11/12 08:59:09;;;;;;;14.70;9.37;;;9.60;1.00;;;;;;6311514;22;20465;-78
2022/11/12 09:01:36;;;;;;;16.65;12.60;;;9.50;1.00;;;;;;6313826;22;20372;-81
2022/11/12 09:04:03;;;;;;;13.67;9.03;;;9.60;1.00;;;;;;6310632;22;21062;-82
2022/11/12 09:06:33;;;;;;;14.43;10.30;;;9.80;1.00;;;;;;6314930;22;20420;-82
2022/11/12 09:09:02;;;;;;;14.40;9.00;;;10.00;1.00;;;;;;6313058;22;20229;-82
2022/11/12 09:11:28;;;;;;;14.33;10.10;;;10.20;1.00;;;;;;6315081;22;20433;-82
2022/11/12 09:13:57;;;;;;;14.50;8.93;;;10.50;1.00;;;;;;6313699;22;20433;-82
2022/11/12 09:16:24;;;;;;;16.80;9.83;;;10.80;1.00;;;;;;6315874;22;20912;-83
2022/11/12 09:18:51;;;;;;;13.83;9.90;;;11.30;1.00;;;;;;6315258;22;20421;-82
2022/11/12 09:21:23;;;;;;;14.57;10.43;;;12.20;1.00;;;;;;6313354;22;20428;-82
2022/11/12 09:23:50;;;;;;;13.90;9.60;;;13.40;1.00;;;;;;6314249;22;20958;-82
2022/11/12 09:26:17;;;;;;;13.47;10.33;;;14.50;1.00;;;;;;6315353;22;20417;-81
2022/11/12 09:28:44;;;;;;;15.80;11.17;;;15.10;1.00;;;;;;6303113;22;20425;-82
2022/11/12 09:31:16;;;;;;;14.07;11.13;;;15.70;1.00;;;;;;6316500;22;21082;-82
2022/11/12 09:33:43;;;;;;;15.00;10.00;;;15.50;1.00;;;;;;6318011;22;20463;-82
2022/11/12 09:36:10;;;;;;;14.47;10.23;;;15.00;1.00;;;;;;6319472;22;20393;-82
2022/11/12 09:38:37;;;;;;;15.10;11.00;;;14.70;1.00;;;;;;6317522;22;20426;-80
2022/11/12 09:41:22;;;;;;;20.23;12.60;;;14.40;1.00;;;;;;6318628;22;20428;-83
2022/11/12 09:43:58;;;;;;;17.37;12.33;;;14.30;1.00;;;;;;6301502;22;20441;-82
2022/11/12 09:46:46;;;;;;;14.50;10.20;;;14.30;1.00;;;;;;6301184;22;20491;-83
2022/11/12 09:49:16;;;;;;;15.87;11.77;;;14.70;1.00;;;;;;6312965;22;20402;-83
2022/11/12 09:51:48;;;;;;;14.33;11.10;;;14.90;1.00;;;;;;6315685;22;20409;-81
2022/11/12 09:54:32;;;;;;;20.03;12.70;;;14.50;1.00;;;;;;6314239;22;20473;-82
2022/11/12 09:57:00;;;;;;;16.70;11.13;;;14.40;1.00;;;;;;6302622;22;20929;-82
2022/11/12 09:59:34;;;;;;;16.30;11.10;;;14.20;1.00;;;;;;6317312;22;20405;-82
2022/11/12 10:02:25;;;;;;;16.70;12.00;;;14.20;1.00;;;;;;6315144;22;20425;-82
2022/11/12 10:05:25;;;;;;;16.47;11.97;;;14.40;1.00;;;;;;6289200;22;20422;-83
2022/11/12 10:08:02;;;;;;;19.53;13.10;;;14.60;1.00;;;;;;6302845;22;20900;-82
2022/11/12 10:10:41;;;;;;;15.40;12.27;;;14.90;1.00;;;;;;6322937;22;20479;-83
2022/11/12 10:13:34;;;;;;;19.17;13.90;;;15.10;1.00;;;;;;6316262;22;20406;-82
2022/11/12 10:19:43;;;;;;;19.00;11.70;;;15.00;1.00;;;;;;6316268;22;20461;-82
2022/11/12 10:22:26;;;;;;;18.20;12.70;;;15.00;1.00;;;;;;6314608;22;20487;-81
2022/11/12 10:24:57;;;;;;;16.50;12.30;;;15.10;1.00;;;;;;6317343;22;20449;-81
2022/11/12 10:27:34;;;;;;;16.93;12.60;;;15.20;1.00;;;;;;6318868;22;20390;-83
2022/11/12 10:30:06;;;;;;;15.70;12.17;;;15.60;1.00;;;;;;6314326;22;21199;-82
2022/11/12 10:32:37;;;;;;;17.67;12.80;;;15.90;1.00;;;;;;6321180;22;20430;-83
2022/11/12 10:35:06;;;;;;;15.53;12.93;;;16.00;1.00;;;;;;6319092;22;20382;-82
2022/11/12 10:37:39;;;;;;;23.23;14.17;;;15.80;1.00;;;;;;6318251;22;20926;-81
2022/11/12 10:40:31;;;;;;;17.03;11.30;;;16.10;1.00;;;;;;6300312;22;20393;-81
2022/11/12 10:43:02;;;;;;;16.53;11.17;;;16.50;1.00;;;;;;6302633;22;20917;-82
2022/11/12 10:45:31;;;;;;;18.13;12.77;;;16.60;1.00;;;;;;6306978;22;20559;-81
2022/11/12 10:47:59;;;;;;;16.00;11.40;;;16.90;1.00;;;;;;6318981;22;20427;-81
2022/11/12 10:50:31;;;;;;;19.20;11.23;;;17.30;1.00;;;;;;6323989;22;20414;-82
2022/11/12 10:53:01;;;;;;;16.47;11.30;;;17.70;1.00;;;;;;6322546;22;20481;-81
2022/11/12 11:39:59;;;;;;;11.50;8.13;;;20.80;1.00;;;;;;6295319;22;20429;-86
2022/11/12 11:42:49;;;;;;;13.80;9.77;;;20.80;1.00;;;;;;6313035;22;20486;-83
2022/11/12 11:45:23;;;;;;;13.30;10.27;;;20.70;1.00;;;;;;6315325;22;20451;-83
2022/11/12 11:47:54;;;;;;;14.40;10.20;;;21.20;1.00;;;;;;6317002;22;20427;-84
2022/11/12 11:50:27;;;;;;;15.27;9.40;;;21.30;1.00;;;;;;6314764;22;20403;-84
2022/11/12 11:53:05;;;;;;;12.97;10.00;;;22.00;1.00;;;;;;6318665;22;20407;-86
2022/11/12 11:55:43;;;;;;;12.27;8.70;;;22.90;1.00;;;;;;6312988;22;20421;-86
2022/11/12 11:58:19;;;;;;;12.37;8.40;;;23.90;1.00;;;;;;6314446;22;20431;-84
2022/11/12 12:00:54;;;;;;;12.43;8.90;;;24.50;1.00;;;;;;6314282;22;20430;-84
2022/11/12 12:03:25;;;;;;;12.63;8.00;;;25.00;1.00;;;;;;6315831;22;20414;-85
2022/11/12 12:06:24;;;;;;;;;;;;;;;;;;;;;
2022/11/12 12:09:03;;;;;;;12.33;7.63;;;25.50;1.00;;;;;;6313727;22;42503;-85
2022/11/12 12:11:41;;;;;;;11.23;8.37;;;26.00;1.00;;;;;;6315125;22;20807;-84
2022/11/12 12:14:32;;;;;;;11.27;8.20;;;26.30;1.00;;;;;;6314961;22;20436;-83
2022/11/12 12:17:19;;;;;;;11.13;6.97;;;27.40;1.00;;;;;;6307558;22;20426;-82
2022/11/12 12:19:57;;;;;;;11.93;8.57;;;28.00;1.00;;;;;;6313882;22;20913;-82
2022/11/12 12:22:34;;;;;;;11.23;8.33;;;28.40;1.00;;;;;;6314357;22;20426;-82
2022/11/12 12:25:08;;;;;;;12.70;9.27;;;28.40;1.00;;;;;;6317512;22;20410;-83
2022/11/12 12:27:48;;;;;;;15.87;10.00;;;27.60;1.00;;;;;;6315496;22;20513;-81
2022/11/12 12:30:20;;;;;;;9.73;8.73;;;27.20;1.00;;;;;;6311086;22;20387;-83
2022/11/12 12:32:53;;;;;;;11.90;9.97;;;26.20;1.00;;;;;;6314971;22;20434;-82
2022/11/12 12:35:25;;;;;;;13.63;9.93;;;25.70;1.00;;;;;;6315736;22;20760;-83
2022/11/12 12:38:01;;;;;;;11.97;8.73;;;25.30;1.00;;;;;;6315143;22;20564;-83
2022/11/12 12:40:34;;;;;;;12.60;9.63;;;24.20;1.00;;;;;;6314692;22;20473;-83
2022/11/12 12:43:08;;;;;;;13.20;9.30;;;23.20;1.00;;;;;;6315588;22;20470;-83
2022/11/12 12:45:41;;;;;;;15.27;10.20;;;22.10;1.00;;;;;;6315366;22;20418;-83
2022/11/12 12:48:14;;;;;;;13.10;9.80;;;22.50;1.00;;;;;;6314508;22;20441;-84
2022/11/12 12:50:42;;;;;;;16.77;10.93;;;23.50;1.00;;;;;;6313979;22;20423;-82
2022/11/12 12:53:18;;;;;;;12.23;9.13;;;24.20;1.00;;;;;;6313768;22;20452;-83
2022/11/12 12:55:48;;;;;;;13.97;9.87;;;24.40;1.00;;;;;;6315600;22;21090;-83
2022/11/12 12:58:20;;;;;;;10.87;8.30;;;25.30;1.00;;;;;;6314326;22;20452;-83
2022/11/12 13:00:50;;;;;;;11.27;9.37;;;24.90;1.00;;;;;;6311969;22;20504;-83
2022/11/12 13:03:53;;;;;;;12.23;11.03;;;24.70;1.00;;;;;;6314319;22;20517;-84
2022/11/12 13:06:33;;;;;;;13.30;9.13;;;24.80;1.00;;;;;;6310633;22;20374;-83
2022/11/12 13:09:03;;;;;;;12.50;9.90;;;24.40;1.00;;;;;;6311867;22;20515;-83
2022/11/12 13:15:12;;;;;;;12.27;8.00;;;23.50;1.00;;;;;;6314381;22;20465;-83
2022/11/12 13:17:50;;;;;;;10.87;8.73;;;23.00;1.00;;;;;;6314064;22;20418;-81
2022/11/12 13:20:34;;;;;;;11.53;9.23;;;21.90;1.00;;;;;;6312440;22;20414;-82
2022/11/12 13:23:02;;;;;;;14.53;13.00;;;20.60;1.00;;;;;;6313233;22;20432;-82
2022/11/12 13:25:31;;;;;;;12.93;10.27;;;19.60;1.00;;;;;;6313461;22;20505;-83
2022/11/12 13:28:13;;;;;;;13.67;9.40;;;18.80;1.00;;;;;;6310989;22;20920;-82
2022/11/12 13:31:01;;;;;;;14.10;9.60;;;18.30;1.00;;;;;;6313881;22;20460;-81
2022/11/12 13:33:37;;;;;;;12.43;9.50;;;17.90;1.00;;;;;;6311919;22;20416;-83
2022/11/12 13:36:26;;;;;;;15.90;10.90;;;17.50;1.00;;;;;;6313592;22;21040;-82
2022/11/12 13:38:54;;;;;;;14.70;9.30;;;17.10;1.00;;;;;;6313570;22;20417;-81
2022/11/12 13:44:07;;;;;;;11.10;9.10;;;16.80;1.00;;;;;;6317366;22;20410;-81
2022/11/12 13:46:37;;;;;;;14.93;10.10;;;16.60;1.00;;;;;;6311130;22;20756;-83
2022/11/12 13:49:07;;;;;;;15.97;9.83;;;16.50;1.00;;;;;;6311247;22;20825;-83
2022/11/12 13:51:45;;;;;;;13.00;7.70;;;16.40;1.00;;;;;;6312490;22;20458;-82
2022/11/12 13:54:32;;;;;;;15.13;8.00;;;16.30;1.00;;;;;;6313029;22;20415;-81
2022/11/12 13:57:29;;;;;;;12.43;8.23;;;16.10;1.00;;;;;;6311128;22;20450;-82
2022/11/12 14:00:19;;;;;;;14.50;8.10;;;16.00;1.00;;;;;;6310916;22;20394;-81
2022/11/12 14:03:04;;;;;;;14.40;8.40;;;15.90;1.00;;;;;;6312188;22;20861;-81
2022/11/12 14:05:33;;;;;;;14.07;8.80;;;15.80;1.00;;;;;;6312798;22;20385;-81
2022/11/12 14:08:18;;;;;;;15.80;9.77;;;15.70;1.00;;;;;;6309382;22;21182;-81
2022/11/12 14:10:57;;;;;;;15.10;8.63;;;15.50;1.00;;;;;;6309685;22;20414;-80
2022/11/12 14:13:45;;;;;;;12.93;8.90;;;15.40;1.00;;;;;;6310486;22;20445;-80
2022/11/12 14:16:24;;;;;;;15.70;9.10;;;15.40;1.00;;;;;;6312647;22;20452;-80
2022/11/12 14:19:20;;;;;;;13.10;8.80;;;15.30;1.00;;;;;;6310940;22;20434;-82
2022/11/12 14:22:02;;;;;;;14.80;8.93;;;15.30;1.00;;;;;;6300401;22;20508;-79
2022/11/12 14:24:32;;;;;;;12.33;9.30;;;15.20;1.00;;;;;;6314478;22;20430;-81
2022/11/12 14:26:59;;;;;;;14.10;8.70;;;15.20;1.00;;;;;;6315655;22;20423;-80
2022/11/12 14:29:26;;;;;;;13.20;7.50;;;15.10;1.00;;;;;;6313965;22;20549;-80
2022/11/12 14:32:01;;;;;;;18.10;9.70;;;15.00;1.00;;;;;;6309765;22;21471;-80
2022/11/12 14:34:31;;;;;;;12.80;7.40;;;14.90;1.00;;;;;;6311811;22;20411;-82
2022/11/12 14:36:59;;;;;;;11.20;8.13;;;14.80;1.00;;;;;;6313708;22;20509;-80